sensor_id;sensor_type;location;lat;lon;timestamp;P1;durP1;ratioP1;P2;durP2;ratioP2
72728;SDS011;60843;52.062;4.508;2022-08-18T00:00:43;20.77;;;9.25;;
72728;SDS011;60843;52.062;4.508;2022-08-18T00:03:09;18.38;;;9.95;;
72728;SDS011;60843;52.062;4.508;2022-08-18T00:05:35;18.15;;;9.77;;
72728;SDS011;60843;52.062;4.508;2022-08-18T00:08:01;17.77;;;9.18;;
72728;SDS011;60843;52.062;4.508;2022-08-18T00:10:27;19.58;;;8.85;;
72728;SDS011;60843;52.062;4.508;2022-08-18T00:12:52;16.23;;;9.07;;
72728;SDS011;60843;52.062;4.508;2022-08-18T00:15:18;12.73;;;8.27;;
72728;SDS011;60843;52.062;4.508;2022-08-18T00:17:44;16.65;;;8.38;;
72728;SDS011;60843;52.062;4.508;2022-08-18T00:20:11;16.63;;;8.52;;
72728;SDS011;60843;52.062;4.508;2022-08-18T00:22:38;14.80;;;7.75;;
72728;SDS011;60843;52.062;4.508;2022-08-18T00:25:05;20.58;;;9.10;;
72728;SDS011;60843;52.062;4.508;2022-08-18T00:27:31;23.52;;;8.73;;
72728;SDS011;60843;52.062;4.508;2022-08-18T00:29:58;15.85;;;8.30;;
72728;SDS011;60843;52.062;4.508;2022-08-18T00:32:27;13.95;;;8.23;;
72728;SDS011;60843;52.062;4.508;2022-08-18T00:34:54;17.52;;;8.23;;
72728;SDS011;60843;52.062;4.508;2022-08-18T00:37:20;17.58;;;8.77;;
72728;SDS011;60843;52.062;4.508;2022-08-18T00:39:48;16.13;;;7.97;;
72728;SDS011;60843;52.062;4.508;2022-08-18T00:42:16;14.57;;;7.90;;
72728;SDS011;60843;52.062;4.508;2022-08-18T00:44:42;15.23;;;8.52;;
72728;SDS011;60843;52.062;4.508;2022-08-18T00:47:08;19.65;;;8.73;;
72728;SDS011;60843;52.062;4.508;2022-08-18T00:49:34;16.15;;;7.97;;
72728;SDS011;60843;52.062;4.508;2022-08-18T00:52:00;13.00;;;8.10;;
72728;SDS011;60843;52.062;4.508;2022-08-18T00:54:27;17.05;;;8.02;;
72728;SDS011;60843;52.062;4.508;2022-08-18T00:56:56;12.15;;;7.70;;
72728;SDS011;60843;52.062;4.508;2022-08-18T01:02:03;12.75;;;6.70;;
72728;SDS011;60843;52.062;4.508;2022-08-18T01:04:32;11.05;;;7.03;;
72728;SDS011;60843;52.062;4.508;2022-08-18T01:07:07;14.43;;;7.55;;
72728;SDS011;60843;52.062;4.508;2022-08-18T01:09:36;17.52;;;7.07;;
72728;SDS011;60843;52.062;4.508;2022-08-18T01:12:02;12.30;;;7.05;;
72728;SDS011;60843;52.062;4.508;2022-08-18T01:14:27;15.13;;;7.07;;
72728;SDS011;60843;52.062;4.508;2022-08-18T01:16:53;14.75;;;6.30;;
72728;SDS011;60843;52.062;4.508;2022-08-18T01:19:37;16.35;;;6.90;;
72728;SDS011;60843;52.062;4.508;2022-08-18T01:22:32;16.95;;;7.10;;
72728;SDS011;60843;52.062;4.508;2022-08-18T01:25:02;12.52;;;7.15;;
72728;SDS011;60843;52.062;4.508;2022-08-18T01:28:05;10.85;;;5.53;;
72728;SDS011;60843;52.062;4.508;2022-08-18T01:30:31;10.00;;;6.90;;
72728;SDS011;60843;52.062;4.508;2022-08-18T01:33:09;16.55;;;6.70;;
72728;SDS011;60843;52.062;4.508;2022-08-18T01:35:36;12.40;;;6.95;;
72728;SDS011;60843;52.062;4.508;2022-08-18T01:38:04;11.88;;;6.95;;
72728;SDS011;60843;52.062;4.508;2022-08-18T01:40:30;17.83;;;7.05;;
72728;SDS011;60843;52.062;4.508;2022-08-18T01:42:56;13.68;;;6.72;;
72728;SDS011;60843;52.062;4.508;2022-08-18T01:45:22;9.63;;;6.85;;
72728;SDS011;60843;52.062;4.508;2022-08-18T01:47:47;13.82;;;6.78;;
72728;SDS011;60843;52.062;4.508;2022-08-18T01:50:15;16.38;;;6.78;;
72728;SDS011;60843;52.062;4.508;2022-08-18T01:52:41;15.25;;;6.70;;
72728;SDS011;60843;52.062;4.508;2022-08-18T01:55:07;11.40;;;6.22;;
72728;SDS011;60843;52.062;4.508;2022-08-18T01:57:35;9.73;;;6.15;;
72728;SDS011;60843;52.062;4.508;2022-08-18T02:00:07;9.82;;;6.43;;
72728;SDS011;60843;52.062;4.508;2022-08-18T02:02:34;11.68;;;6.38;;
72728;SDS011;60843;52.062;4.508;2022-08-18T02:05:01;15.40;;;6.72;;
72728;SDS011;60843;52.062;4.508;2022-08-18T02:07:28;16.10;;;7.90;;
72728;SDS011;60843;52.062;4.508;2022-08-18T02:09:54;11.02;;;6.63;;
72728;SDS011;60843;52.062;4.508;2022-08-18T02:12:19;18.10;;;6.97;;
72728;SDS011;60843;52.062;4.508;2022-08-18T02:14:45;18.17;;;6.93;;
72728;SDS011;60843;52.062;4.508;2022-08-18T02:17:11;15.48;;;7.18;;
72728;SDS011;60843;52.062;4.508;2022-08-18T02:19:39;22.00;;;6.93;;
72728;SDS011;60843;52.062;4.508;2022-08-18T02:22:07;13.88;;;7.18;;
72728;SDS011;60843;52.062;4.508;2022-08-18T02:24:34;15.23;;;6.72;;
72728;SDS011;60843;52.062;4.508;2022-08-18T02:26:59;12.55;;;6.40;;
72728;SDS011;60843;52.062;4.508;2022-08-18T02:29:25;11.00;;;7.03;;
72728;SDS011;60843;52.062;4.508;2022-08-18T02:31:51;9.10;;;6.20;;
72728;SDS011;60843;52.062;4.508;2022-08-18T02:34:17;13.60;;;7.28;;
72728;SDS011;60843;52.062;4.508;2022-08-18T02:36:42;14.52;;;7.40;;
72728;SDS011;60843;52.062;4.508;2022-08-18T02:39:08;10.75;;;6.47;;
72728;SDS011;60843;52.062;4.508;2022-08-18T02:41:33;14.60;;;7.13;;
72728;SDS011;60843;52.062;4.508;2022-08-18T02:44:00;18.13;;;6.82;;
72728;SDS011;60843;52.062;4.508;2022-08-18T02:46:26;12.00;;;6.40;;
72728;SDS011;60843;52.062;4.508;2022-08-18T02:48:51;13.98;;;6.72;;
72728;SDS011;60843;52.062;4.508;2022-08-18T02:51:17;15.07;;;7.18;;
72728;SDS011;60843;52.062;4.508;2022-08-18T02:53:44;12.52;;;7.28;;
72728;SDS011;60843;52.062;4.508;2022-08-18T02:56:14;15.00;;;7.43;;
72728;SDS011;60843;52.062;4.508;2022-08-18T02:58:54;13.57;;;6.65;;
72728;SDS011;60843;52.062;4.508;2022-08-18T03:01:31;11.30;;;6.72;;
72728;SDS011;60843;52.062;4.508;2022-08-18T03:03:59;16.60;;;7.13;;
72728;SDS011;60843;52.062;4.508;2022-08-18T03:06:25;11.25;;;7.40;;
72728;SDS011;60843;52.062;4.508;2022-08-18T03:08:51;15.43;;;7.32;;
72728;SDS011;60843;52.062;4.508;2022-08-18T03:11:18;12.60;;;7.80;;
72728;SDS011;60843;52.062;4.508;2022-08-18T03:13:48;12.68;;;7.20;;
72728;SDS011;60843;52.062;4.508;2022-08-18T03:16:13;10.63;;;7.10;;
72728;SDS011;60843;52.062;4.508;2022-08-18T03:18:40;12.35;;;7.03;;
72728;SDS011;60843;52.062;4.508;2022-08-18T03:21:07;13.75;;;7.60;;
72728;SDS011;60843;52.062;4.508;2022-08-18T03:23:34;14.07;;;7.22;;
72728;SDS011;60843;52.062;4.508;2022-08-18T03:26:00;10.15;;;6.90;;
72728;SDS011;60843;52.062;4.508;2022-08-18T03:28:25;13.20;;;6.72;;
72728;SDS011;60843;52.062;4.508;2022-08-18T03:30:52;11.30;;;6.95;;
72728;SDS011;60843;52.062;4.508;2022-08-18T03:33:18;14.63;;;7.53;;
72728;SDS011;60843;52.062;4.508;2022-08-18T03:35:44;12.95;;;7.05;;
72728;SDS011;60843;52.062;4.508;2022-08-18T03:38:09;12.13;;;7.32;;
72728;SDS011;60843;52.062;4.508;2022-08-18T03:40:35;14.80;;;7.40;;
72728;SDS011;60843;52.062;4.508;2022-08-18T03:43:02;14.18;;;7.72;;
72728;SDS011;60843;52.062;4.508;2022-08-18T03:45:32;16.73;;;7.85;;
72728;SDS011;60843;52.062;4.508;2022-08-18T03:47:58;11.60;;;7.95;;
72728;SDS011;60843;52.062;4.508;2022-08-18T03:50:25;14.25;;;7.53;;
72728;SDS011;60843;52.062;4.508;2022-08-18T03:52:51;11.75;;;7.45;;
72728;SDS011;60843;52.062;4.508;2022-08-18T03:55:17;12.05;;;7.43;;
72728;SDS011;60843;52.062;4.508;2022-08-18T03:57:43;12.70;;;7.45;;
72728;SDS011;60843;52.062;4.508;2022-08-18T04:00:10;13.55;;;7.60;;
72728;SDS011;60843;52.062;4.508;2022-08-18T04:02:36;12.48;;;8.07;;
72728;SDS011;60843;52.062;4.508;2022-08-18T04:05:02;13.63;;;7.75;;
72728;SDS011;60843;52.062;4.508;2022-08-18T04:07:28;11.38;;;7.35;;
72728;SDS011;60843;52.062;4.508;2022-08-18T04:09:57;13.73;;;8.02;;
72728;SDS011;60843;52.062;4.508;2022-08-18T04:12:22;13.40;;;7.78;;
72728;SDS011;60843;52.062;4.508;2022-08-18T04:14:48;16.67;;;7.90;;
72728;SDS011;60843;52.062;4.508;2022-08-18T04:17:16;15.73;;;8.18;;
72728;SDS011;60843;52.062;4.508;2022-08-18T04:19:47;14.20;;;8.02;;
72728;SDS011;60843;52.062;4.508;2022-08-18T04:22:13;16.63;;;8.32;;
72728;SDS011;60843;52.062;4.508;2022-08-18T04:24:40;20.15;;;8.88;;
72728;SDS011;60843;52.062;4.508;2022-08-18T04:27:06;13.65;;;8.68;;
72728;SDS011;60843;52.062;4.508;2022-08-18T04:29:31;14.27;;;7.38;;
72728;SDS011;60843;52.062;4.508;2022-08-18T04:31:58;13.65;;;8.32;;
72728;SDS011;60843;52.062;4.508;2022-08-18T04:34:29;11.88;;;7.57;;
72728;SDS011;60843;52.062;4.508;2022-08-18T04:36:54;14.35;;;8.25;;
72728;SDS011;60843;52.062;4.508;2022-08-18T04:39:21;15.00;;;8.30;;
72728;SDS011;60843;52.062;4.508;2022-08-18T04:41:47;14.88;;;8.35;;
72728;SDS011;60843;52.062;4.508;2022-08-18T04:44:13;11.70;;;8.13;;
72728;SDS011;60843;52.062;4.508;2022-08-18T04:46:42;17.42;;;8.38;;
72728;SDS011;60843;52.062;4.508;2022-08-18T04:49:11;18.08;;;8.77;;
72728;SDS011;60843;52.062;4.508;2022-08-18T04:51:42;19.15;;;9.43;;
72728;SDS011;60843;52.062;4.508;2022-08-18T04:54:34;16.20;;;8.82;;
72728;SDS011;60843;52.062;4.508;2022-08-18T04:57:09;13.35;;;8.52;;
72728;SDS011;60843;52.062;4.508;2022-08-18T04:59:38;12.70;;;8.77;;
72728;SDS011;60843;52.062;4.508;2022-08-18T05:02:08;16.02;;;8.60;;
72728;SDS011;60843;52.062;4.508;2022-08-18T05:04:35;16.90;;;9.00;;
72728;SDS011;60843;52.062;4.508;2022-08-18T05:07:05;18.80;;;10.05;;
72728;SDS011;60843;52.062;4.508;2022-08-18T05:09:35;17.80;;;9.77;;
72728;SDS011;60843;52.062;4.508;2022-08-18T05:12:02;16.85;;;9.23;;
72728;SDS011;60843;52.062;4.508;2022-08-18T05:17:02;15.23;;;9.15;;
72728;SDS011;60843;52.062;4.508;2022-08-18T05:19:28;16.70;;;9.63;;
72728;SDS011;60843;52.062;4.508;2022-08-18T05:21:54;14.07;;;9.88;;
72728;SDS011;60843;52.062;4.508;2022-08-18T05:24:21;18.33;;;9.93;;
72728;SDS011;60843;52.062;4.508;2022-08-18T05:29:15;16.27;;;9.77;;
72728;SDS011;60843;52.062;4.508;2022-08-18T05:31:42;16.45;;;9.27;;
72728;SDS011;60843;52.062;4.508;2022-08-18T05:34:07;16.58;;;9.88;;
72728;SDS011;60843;52.062;4.508;2022-08-18T05:41:45;16.88;;;9.40;;
72728;SDS011;60843;52.062;4.508;2022-08-18T05:44:23;14.77;;;9.25;;
72728;SDS011;60843;52.062;4.508;2022-08-18T05:46:59;15.60;;;9.30;;
72728;SDS011;60843;52.062;4.508;2022-08-18T05:49:30;15.73;;;9.15;;
72728;SDS011;60843;52.062;4.508;2022-08-18T05:52:00;17.98;;;8.80;;
72728;SDS011;60843;52.062;4.508;2022-08-18T05:54:29;13.20;;;8.73;;
72728;SDS011;60843;52.062;4.508;2022-08-18T05:57:23;12.82;;;8.50;;
72728;SDS011;60843;52.062;4.508;2022-08-18T05:59:51;13.15;;;8.70;;
72728;SDS011;60843;52.062;4.508;2022-08-18T06:02:34;15.15;;;8.77;;
72728;SDS011;60843;52.062;4.508;2022-08-18T06:05:13;15.07;;;7.68;;
72728;SDS011;60843;52.062;4.508;2022-08-18T06:07:56;17.58;;;8.70;;
72728;SDS011;60843;52.062;4.508;2022-08-18T06:10:24;14.55;;;8.25;;
72728;SDS011;60843;52.062;4.508;2022-08-18T06:12:51;12.05;;;7.93;;
72728;SDS011;60843;52.062;4.508;2022-08-18T06:21:05;7.25;;;5.38;;
72728;SDS011;60843;52.062;4.508;2022-08-18T06:26:08;7.22;;;4.90;;
72728;SDS011;60843;52.062;4.508;2022-08-18T06:31:22;8.02;;;4.68;;
72728;SDS011;60843;52.062;4.508;2022-08-18T06:37:09;5.97;;;3.75;;
72728;SDS011;60843;52.062;4.508;2022-08-18T06:39:44;6.95;;;3.92;;
72728;SDS011;60843;52.062;4.508;2022-08-18T06:42:39;6.28;;;3.22;;
72728;SDS011;60843;52.062;4.508;2022-08-18T06:45:06;7.00;;;3.78;;
72728;SDS011;60843;52.062;4.508;2022-08-18T06:47:40;6.10;;;3.67;;
72728;SDS011;60843;52.062;4.508;2022-08-18T06:50:27;7.85;;;3.88;;
72728;SDS011;60843;52.062;4.508;2022-08-18T06:52:58;7.10;;;3.22;;
72728;SDS011;60843;52.062;4.508;2022-08-18T06:55:48;5.35;;;3.72;;
72728;SDS011;60843;52.062;4.508;2022-08-18T07:00:44;5.43;;;2.72;;
72728;SDS011;60843;52.062;4.508;2022-08-18T07:03:21;3.70;;;2.50;;
72728;SDS011;60843;52.062;4.508;2022-08-18T07:06:01;4.18;;;2.42;;
72728;SDS011;60843;52.062;4.508;2022-08-18T07:08:33;6.93;;;2.75;;
72728;SDS011;60843;52.062;4.508;2022-08-18T07:11:25;4.53;;;2.63;;
72728;SDS011;60843;52.062;4.508;2022-08-18T07:17:18;7.95;;;2.30;;
72728;SDS011;60843;52.062;4.508;2022-08-18T07:20:08;6.43;;;2.63;;
72728;SDS011;60843;52.062;4.508;2022-08-18T07:22:59;3.95;;;2.15;;
72728;SDS011;60843;52.062;4.508;2022-08-18T07:25:27;2.35;;;1.77;;
72728;SDS011;60843;52.062;4.508;2022-08-18T07:27:55;3.47;;;2.13;;
72728;SDS011;60843;52.062;4.508;2022-08-18T07:30:26;5.07;;;1.90;;
72728;SDS011;60843;52.062;4.508;2022-08-18T07:35:35;3.60;;;2.15;;
72728;SDS011;60843;52.062;4.508;2022-08-18T07:43:37;2.80;;;1.90;;
72728;SDS011;60843;52.062;4.508;2022-08-18T07:46:11;2.63;;;1.58;;
72728;SDS011;60843;52.062;4.508;2022-08-18T07:48:40;7.20;;;1.95;;
72728;SDS011;60843;52.062;4.508;2022-08-18T08:04:50;5.93;;;1.95;;
72728;SDS011;60843;52.062;4.508;2022-08-18T08:07:30;4.30;;;2.17;;
72728;SDS011;60843;52.062;4.508;2022-08-18T08:10:09;2.97;;;2.05;;
72728;SDS011;60843;52.062;4.508;2022-08-18T08:18:17;4.45;;;1.65;;
72728;SDS011;60843;52.062;4.508;2022-08-18T08:20:57;2.17;;;1.30;;
72728;SDS011;60843;52.062;4.508;2022-08-18T08:29:13;3.15;;;1.90;;
72728;SDS011;60843;52.062;4.508;2022-08-18T08:37:03;2.15;;;1.50;;
72728;SDS011;60843;52.062;4.508;2022-08-18T08:39:37;1.80;;;1.08;;
72728;SDS011;60843;52.062;4.508;2022-08-18T08:42:10;2.08;;;1.20;;
72728;SDS011;60843;52.062;4.508;2022-08-18T08:44:41;1.52;;;1.20;;
72728;SDS011;60843;52.062;4.508;2022-08-18T08:47:16;5.55;;;1.33;;
72728;SDS011;60843;52.062;4.508;2022-08-18T08:49:51;4.78;;;1.23;;
72728;SDS011;60843;52.062;4.508;2022-08-18T08:52:34;3.10;;;1.10;;
72728;SDS011;60843;52.062;4.508;2022-08-18T08:55:07;2.80;;;1.40;;
72728;SDS011;60843;52.062;4.508;2022-08-18T08:57:36;3.15;;;1.25;;
72728;SDS011;60843;52.062;4.508;2022-08-18T09:00:07;2.50;;;0.93;;
72728;SDS011;60843;52.062;4.508;2022-08-18T09:05:33;3.15;;;1.70;;
72728;SDS011;60843;52.062;4.508;2022-08-18T09:14:06;6.93;;;1.30;;
72728;SDS011;60843;52.062;4.508;2022-08-18T09:19:26;3.13;;;1.20;;
72728;SDS011;60843;52.062;4.508;2022-08-18T09:24:40;6.68;;;1.10;;
72728;SDS011;60843;52.062;4.508;2022-08-18T09:27:21;5.20;;;1.70;;
72728;SDS011;60843;52.062;4.508;2022-08-18T09:29:55;6.15;;;1.10;;
72728;SDS011;60843;52.062;4.508;2022-08-18T09:40:33;3.03;;;1.30;;
72728;SDS011;60843;52.062;4.508;2022-08-18T09:43:36;2.53;;;1.02;;
72728;SDS011;60843;52.062;4.508;2022-08-18T09:51:51;7.25;;;1.30;;
72728;SDS011;60843;52.062;4.508;2022-08-18T09:54:27;3.78;;;1.30;;
72728;SDS011;60843;52.062;4.508;2022-08-18T10:02:11;2.97;;;1.05;;
72728;SDS011;60843;52.062;4.508;2022-08-18T10:10:48;4.57;;;1.70;;
72728;SDS011;60843;52.062;4.508;2022-08-18T10:16:09;5.10;;;1.60;;
72728;SDS011;60843;52.062;4.508;2022-08-18T10:19:48;2.85;;;1.30;;
72728;SDS011;60843;52.062;4.508;2022-08-18T10:24:27;4.57;;;1.48;;
72728;SDS011;60843;52.062;4.508;2022-08-18T10:30:42;4.10;;;1.65;;
72728;SDS011;60843;52.062;4.508;2022-08-18T10:32:57;4.50;;;1.60;;
72728;SDS011;60843;52.062;4.508;2022-08-18T10:40:37;5.28;;;1.45;;
72728;SDS011;60843;52.062;4.508;2022-08-18T10:43:10;3.28;;;1.30;;
72728;SDS011;60843;52.062;4.508;2022-08-18T10:45:43;4.15;;;1.40;;
72728;SDS011;60843;52.062;4.508;2022-08-18T10:48:15;3.08;;;1.15;;
72728;SDS011;60843;52.062;4.508;2022-08-18T10:51:01;4.60;;;1.35;;
72728;SDS011;60843;52.062;4.508;2022-08-18T10:56:10;3.45;;;1.23;;
72728;SDS011;60843;52.062;4.508;2022-08-18T10:59:16;6.53;;;1.90;;
72728;SDS011;60843;52.062;4.508;2022-08-18T11:01:59;3.35;;;1.40;;
72728;SDS011;60843;52.062;4.508;2022-08-18T11:04:32;4.70;;;1.40;;
72728;SDS011;60843;52.062;4.508;2022-08-18T11:09:29;4.88;;;1.58;;
72728;SDS011;60843;52.062;4.508;2022-08-18T11:11:57;4.00;;;1.70;;
72728;SDS011;60843;52.062;4.508;2022-08-18T11:19:46;4.07;;;1.55;;
72728;SDS011;60843;52.062;4.508;2022-08-18T11:22:22;3.58;;;1.33;;
72728;SDS011;60843;52.062;4.508;2022-08-18T11:24:57;4.93;;;1.20;;
72728;SDS011;60843;52.062;4.508;2022-08-18T11:27:25;6.00;;;1.33;;
72728;SDS011;60843;52.062;4.508;2022-08-18T11:29:52;7.38;;;1.73;;
72728;SDS011;60843;52.062;4.508;2022-08-18T11:34:59;7.63;;;1.80;;
72728;SDS011;60843;52.062;4.508;2022-08-18T11:37:35;3.63;;;1.20;;
72728;SDS011;60843;52.062;4.508;2022-08-18T11:42:56;1.48;;;1.20;;
72728;SDS011;60843;52.062;4.508;2022-08-18T11:45:25;1.95;;;1.30;;
72728;SDS011;60843;52.062;4.508;2022-08-18T11:58:43;5.70;;;1.73;;
72728;SDS011;60843;52.062;4.508;2022-08-18T12:14:53;3.38;;;2.15;;
72728;SDS011;60843;52.062;4.508;2022-08-18T12:17:52;3.13;;;2.20;;
72728;SDS011;60843;52.062;4.508;2022-08-18T12:20:17;4.93;;;2.30;;
72728;SDS011;60843;52.062;4.508;2022-08-18T12:22:45;3.58;;;2.00;;
72728;SDS011;60843;52.062;4.508;2022-08-18T12:25:14;3.55;;;1.88;;
72728;SDS011;60843;52.062;4.508;2022-08-18T12:30:11;4.95;;;2.20;;
72728;SDS011;60843;52.062;4.508;2022-08-18T12:32:37;4.47;;;1.92;;
72728;SDS011;60843;52.062;4.508;2022-08-18T12:35:04;4.38;;;1.98;;
72728;SDS011;60843;52.062;4.508;2022-08-18T12:37:32;8.27;;;3.30;;
72728;SDS011;60843;52.062;4.508;2022-08-18T12:39:58;4.57;;;3.13;;
72728;SDS011;60843;52.062;4.508;2022-08-18T12:42:24;8.95;;;3.30;;
72728;SDS011;60843;52.062;4.508;2022-08-18T12:44:50;4.50;;;2.78;;
72728;SDS011;60843;52.062;4.508;2022-08-18T12:47:18;7.82;;;2.67;;
72728;SDS011;60843;52.062;4.508;2022-08-18T12:49:46;5.32;;;2.33;;
72728;SDS011;60843;52.062;4.508;2022-08-18T12:52:12;5.28;;;2.38;;
72728;SDS011;60843;52.062;4.508;2022-08-18T12:54:38;4.15;;;2.33;;
72728;SDS011;60843;52.062;4.508;2022-08-18T12:57:05;4.25;;;2.38;;
72728;SDS011;60843;52.062;4.508;2022-08-18T12:59:33;5.63;;;2.28;;
72728;SDS011;60843;52.062;4.508;2022-08-18T13:02:00;4.13;;;2.70;;
72728;SDS011;60843;52.062;4.508;2022-08-18T13:04:26;3.67;;;2.75;;
72728;SDS011;60843;52.062;4.508;2022-08-18T13:06:53;4.90;;;2.63;;
72728;SDS011;60843;52.062;4.508;2022-08-18T13:09:20;4.45;;;2.40;;
72728;SDS011;60843;52.062;4.508;2022-08-18T13:11:46;4.32;;;2.70;;
72728;SDS011;60843;52.062;4.508;2022-08-18T13:14:12;3.58;;;2.20;;
72728;SDS011;60843;52.062;4.508;2022-08-18T13:16:40;6.30;;;2.38;;
72728;SDS011;60843;52.062;4.508;2022-08-18T13:19:07;4.80;;;2.58;;
72728;SDS011;60843;52.062;4.508;2022-08-18T13:21:33;6.40;;;2.45;;
72728;SDS011;60843;52.062;4.508;2022-08-18T13:23:59;5.22;;;1.80;;
72728;SDS011;60843;52.062;4.508;2022-08-18T13:26:30;3.15;;;2.00;;
72728;SDS011;60843;52.062;4.508;2022-08-18T13:28:57;4.68;;;2.55;;
72728;SDS011;60843;52.062;4.508;2022-08-18T13:31:24;5.80;;;2.65;;
72728;SDS011;60843;52.062;4.508;2022-08-18T13:33:51;3.28;;;2.50;;
72728;SDS011;60843;52.062;4.508;2022-08-18T13:36:17;4.35;;;2.25;;
72728;SDS011;60843;52.062;4.508;2022-08-18T13:38:43;4.88;;;2.53;;
72728;SDS011;60843;52.062;4.508;2022-08-18T13:41:09;5.13;;;2.40;;
72728;SDS011;60843;52.062;4.508;2022-08-18T13:43:37;4.32;;;2.45;;
72728;SDS011;60843;52.062;4.508;2022-08-18T13:46:06;2.95;;;1.75;;
72728;SDS011;60843;52.062;4.508;2022-08-18T13:48:33;6.57;;;2.38;;
72728;SDS011;60843;52.062;4.508;2022-08-18T13:50:59;8.20;;;2.78;;
72728;SDS011;60843;52.062;4.508;2022-08-18T13:53:25;5.32;;;2.30;;
72728;SDS011;60843;52.062;4.508;2022-08-18T13:55:53;3.60;;;2.00;;
72728;SDS011;60843;52.062;4.508;2022-08-18T13:58:21;7.20;;;2.38;;
72728;SDS011;60843;52.062;4.508;2022-08-18T14:00:48;6.10;;;2.08;;
72728;SDS011;60843;52.062;4.508;2022-08-18T14:03:18;4.40;;;1.95;;
72728;SDS011;60843;52.062;4.508;2022-08-18T14:05:47;5.35;;;2.15;;
72728;SDS011;60843;52.062;4.508;2022-08-18T14:08:13;6.15;;;2.10;;
72728;SDS011;60843;52.062;4.508;2022-08-18T14:10:39;5.47;;;1.73;;
72728;SDS011;60843;52.062;4.508;2022-08-18T14:13:04;6.25;;;1.67;;
72728;SDS011;60843;52.062;4.508;2022-08-18T14:15:31;4.07;;;1.33;;
72728;SDS011;60843;52.062;4.508;2022-08-18T14:18:00;4.47;;;1.80;;
72728;SDS011;60843;52.062;4.508;2022-08-18T14:20:28;6.53;;;1.77;;
72728;SDS011;60843;52.062;4.508;2022-08-18T14:23:12;5.85;;;1.90;;
72728;SDS011;60843;52.062;4.508;2022-08-18T14:25:57;5.90;;;1.92;;
72728;SDS011;60843;52.062;4.508;2022-08-18T14:28:41;4.82;;;1.73;;
72728;SDS011;60843;52.062;4.508;2022-08-18T14:31:07;4.68;;;1.83;;
72728;SDS011;60843;52.062;4.508;2022-08-18T14:33:33;5.63;;;1.40;;
72728;SDS011;60843;52.062;4.508;2022-08-18T14:35:59;5.50;;;2.13;;
72728;SDS011;60843;52.062;4.508;2022-08-18T14:38:28;7.13;;;2.15;;
72728;SDS011;60843;52.062;4.508;2022-08-18T14:41:01;3.55;;;1.80;;
72728;SDS011;60843;52.062;4.508;2022-08-18T14:43:28;6.13;;;2.05;;
72728;SDS011;60843;52.062;4.508;2022-08-18T14:45:55;6.90;;;1.70;;
72728;SDS011;60843;52.062;4.508;2022-08-18T14:48:21;4.07;;;1.65;;
72728;SDS011;60843;52.062;4.508;2022-08-18T14:50:48;7.43;;;1.88;;
72728;SDS011;60843;52.062;4.508;2022-08-18T14:53:19;7.05;;;1.63;;
72728;SDS011;60843;52.062;4.508;2022-08-18T14:55:47;8.95;;;2.30;;
72728;SDS011;60843;52.062;4.508;2022-08-18T14:58:26;7.80;;;2.90;;
72728;SDS011;60843;52.062;4.508;2022-08-18T15:01:36;6.20;;;2.22;;
72728;SDS011;60843;52.062;4.508;2022-08-18T15:04:04;4.75;;;1.75;;
72728;SDS011;60843;52.062;4.508;2022-08-18T15:06:30;5.78;;;1.77;;
72728;SDS011;60843;52.062;4.508;2022-08-18T15:08:56;3.80;;;1.60;;
72728;SDS011;60843;52.062;4.508;2022-08-18T15:11:21;2.58;;;1.50;;
72728;SDS011;60843;52.062;4.508;2022-08-18T15:13:47;5.30;;;2.08;;
72728;SDS011;60843;52.062;4.508;2022-08-18T15:16:13;5.57;;;1.67;;
72728;SDS011;60843;52.062;4.508;2022-08-18T15:18:40;7.80;;;1.80;;
72728;SDS011;60843;52.062;4.508;2022-08-18T15:21:06;4.72;;;1.70;;
72728;SDS011;60843;52.062;4.508;2022-08-18T15:24:02;5.05;;;1.80;;
72728;SDS011;60843;52.062;4.508;2022-08-18T15:26:47;3.88;;;2.00;;
72728;SDS011;60843;52.062;4.508;2022-08-18T15:29:16;6.35;;;1.83;;
72728;SDS011;60843;52.062;4.508;2022-08-18T15:32:03;4.05;;;1.50;;
72728;SDS011;60843;52.062;4.508;2022-08-18T15:34:32;5.53;;;1.70;;
72728;SDS011;60843;52.062;4.508;2022-08-18T15:37:04;3.58;;;1.52;;
72728;SDS011;60843;52.062;4.508;2022-08-18T15:39:30;6.72;;;1.40;;
72728;SDS011;60843;52.062;4.508;2022-08-18T15:41:59;6.13;;;1.67;;
72728;SDS011;60843;52.062;4.508;2022-08-18T15:44:26;2.90;;;1.33;;
72728;SDS011;60843;52.062;4.508;2022-08-18T15:46:54;5.68;;;1.92;;
72728;SDS011;60843;52.062;4.508;2022-08-18T15:49:19;3.53;;;1.73;;
72728;SDS011;60843;52.062;4.508;2022-08-18T15:51:45;6.43;;;1.93;;
72728;SDS011;60843;52.062;4.508;2022-08-18T15:54:11;3.72;;;1.63;;
72728;SDS011;60843;52.062;4.508;2022-08-18T15:56:50;2.67;;;1.52;;
72728;SDS011;60843;52.062;4.508;2022-08-18T15:59:15;6.23;;;1.83;;
72728;SDS011;60843;52.062;4.508;2022-08-18T16:01:41;3.10;;;1.70;;
72728;SDS011;60843;52.062;4.508;2022-08-18T16:04:07;5.07;;;1.90;;
72728;SDS011;60843;52.062;4.508;2022-08-18T16:06:33;4.45;;;1.58;;
72728;SDS011;60843;52.062;4.508;2022-08-18T16:09:00;3.90;;;1.60;;
72728;SDS011;60843;52.062;4.508;2022-08-18T16:11:26;6.57;;;1.85;;
72728;SDS011;60843;52.062;4.508;2022-08-18T16:13:52;3.67;;;1.92;;
72728;SDS011;60843;52.062;4.508;2022-08-18T16:16:19;5.47;;;1.80;;
72728;SDS011;60843;52.062;4.508;2022-08-18T16:18:46;4.45;;;2.00;;
72728;SDS011;60843;52.062;4.508;2022-08-18T16:21:20;5.45;;;1.90;;
72728;SDS011;60843;52.062;4.508;2022-08-18T16:23:48;7.00;;;1.80;;
72728;SDS011;60843;52.062;4.508;2022-08-18T16:26:15;4.75;;;1.80;;
72728;SDS011;60843;52.062;4.508;2022-08-18T16:28:43;3.88;;;1.88;;
72728;SDS011;60843;52.062;4.508;2022-08-18T16:31:11;5.75;;;2.13;;
72728;SDS011;60843;52.062;4.508;2022-08-18T16:33:41;4.28;;;1.40;;
72728;SDS011;60843;52.062;4.508;2022-08-18T16:36:14;2.92;;;1.50;;
72728;SDS011;60843;52.062;4.508;2022-08-18T16:38:40;7.32;;;1.40;;
72728;SDS011;60843;52.062;4.508;2022-08-18T16:41:09;3.67;;;1.65;;
72728;SDS011;60843;52.062;4.508;2022-08-18T16:43:39;5.70;;;1.70;;
72728;SDS011;60843;52.062;4.508;2022-08-18T16:46:17;3.83;;;1.23;;
72728;SDS011;60843;52.062;4.508;2022-08-18T16:51:13;3.80;;;1.48;;
72728;SDS011;60843;52.062;4.508;2022-08-18T16:53:40;5.13;;;1.30;;
72728;SDS011;60843;52.062;4.508;2022-08-18T16:56:10;3.50;;;1.33;;
72728;SDS011;60843;52.062;4.508;2022-08-18T16:58:37;4.53;;;1.42;;
72728;SDS011;60843;52.062;4.508;2022-08-18T17:01:21;5.47;;;1.85;;
72728;SDS011;60843;52.062;4.508;2022-08-18T17:04:05;8.25;;;1.83;;
72728;SDS011;60843;52.062;4.508;2022-08-18T17:06:32;6.07;;;1.58;;
72728;SDS011;60843;52.062;4.508;2022-08-18T17:08:59;4.50;;;1.52;;
72728;SDS011;60843;52.062;4.508;2022-08-18T17:11:26;5.70;;;1.73;;
72728;SDS011;60843;52.062;4.508;2022-08-18T17:13:52;4.65;;;1.65;;
72728;SDS011;60843;52.062;4.508;2022-08-18T17:16:20;5.43;;;1.52;;
72728;SDS011;60843;52.062;4.508;2022-08-18T17:18:48;2.97;;;1.65;;
72728;SDS011;60843;52.062;4.508;2022-08-18T17:21:19;4.05;;;1.88;;
72728;SDS011;60843;52.062;4.508;2022-08-18T17:23:51;5.07;;;1.73;;
72728;SDS011;60843;52.062;4.508;2022-08-18T17:26:25;5.80;;;1.95;;
72728;SDS011;60843;52.062;4.508;2022-08-18T17:29:04;7.45;;;1.50;;
72728;SDS011;60843;52.062;4.508;2022-08-18T17:31:37;3.78;;;1.67;;
72728;SDS011;60843;52.062;4.508;2022-08-18T17:34:15;7.68;;;1.80;;
72728;SDS011;60843;52.062;4.508;2022-08-18T17:36:45;5.28;;;1.80;;
72728;SDS011;60843;52.062;4.508;2022-08-18T17:39:16;5.47;;;1.80;;
72728;SDS011;60843;52.062;4.508;2022-08-18T17:41:43;4.25;;;1.60;;
72728;SDS011;60843;52.062;4.508;2022-08-18T17:44:28;5.85;;;1.98;;
72728;SDS011;60843;52.062;4.508;2022-08-18T17:46:55;5.78;;;1.75;;
72728;SDS011;60843;52.062;4.508;2022-08-18T17:49:36;5.72;;;1.75;;
72728;SDS011;60843;52.062;4.508;2022-08-18T17:52:25;3.90;;;1.75;;